createdAt,value
2023-04-28T00:01:06.478Z,21.80
2023-04-28T00:06:22.252Z,19.03
2023-04-28T00:11:31.175Z,21.40
2023-04-28T00:16:40.473Z,20.73
2023-04-28T00:21:49.849Z,23.37
2023-04-28T00:27:14.933Z,23.13
2023-04-28T00:32:44.137Z,20.47
2023-04-28T00:37:51.736Z,19.87
2023-04-28T00:42:54.415Z,22.20
2023-04-28T00:48:20.605Z,27.63
2023-04-28T00:53:28.693Z,21.27
2023-04-28T00:58:41.689Z,22.90
2023-04-28T01:03:46.218Z,22.67
2023-04-28T01:09:52.613Z,23.10
2023-04-28T01:15:00.708Z,23.83
2023-04-28T01:20:22.900Z,20.10
2023-04-28T01:25:31.748Z,26.10
2023-04-28T01:30:45.492Z,25.40
2023-04-28T01:36:00.116Z,26.20
2023-04-28T01:41:06.701Z,26.93
2023-04-28T01:46:12.296Z,26.20
2023-04-28T01:51:17.389Z,26.70
2023-04-28T01:56:22.650Z,35.30
2023-04-28T02:01:27.573Z,27.23
2023-04-28T02:06:34.812Z,24.57
2023-04-28T02:11:59.425Z,24.73
2023-04-28T02:17:05.650Z,30.03
2023-04-28T02:22:09.315Z,29.97
2023-04-28T02:27:12.733Z,25.83
2023-04-28T02:32:19.796Z,25.87
2023-04-28T02:37:24.937Z,38.13
2023-04-28T02:42:30.088Z,35.50
2023-04-28T02:47:34.666Z,34.20
2023-04-28T02:52:51.695Z,32.10
2023-04-28T02:58:05.660Z,30.37
2023-04-28T03:03:19.142Z,29.47
2023-04-28T03:08:22.528Z,28.07
2023-04-28T03:13:34.772Z,25.30
2023-04-28T03:18:40.165Z,26.20
2023-04-28T03:23:49.108Z,26.57
2023-04-28T03:28:56.199Z,25.20
2023-04-28T03:34:01.226Z,26.03
2023-04-28T03:39:13.584Z,25.83
2023-04-28T03:44:16.633Z,30.20
2023-04-28T03:49:24.046Z,26.97
2023-04-28T03:54:36.517Z,24.10
2023-04-28T04:00:04.780Z,23.88
2023-04-28T04:05:19.419Z,21.23
2023-04-28T04:10:42.105Z,34.53
2023-04-28T04:16:00.745Z,25.50
2023-04-28T04:21:06.777Z,22.67
2023-04-28T04:26:14.213Z,24.20
2023-04-28T04:31:21.336Z,25.37
2023-04-28T04:36:23.916Z,23.53
2023-04-28T04:41:27.265Z,19.97
2023-04-28T04:46:56.170Z,18.30
2023-04-28T04:52:08.325Z,16.70
2023-04-28T04:57:11.583Z,19.07
2023-04-28T05:02:58.049Z,19.50
2023-04-28T05:08:00.988Z,22.37
2023-04-28T05:13:04.361Z,21.87
2023-04-28T05:18:11.099Z,22.83
2023-04-28T05:23:14.009Z,23.40
2023-04-28T05:34:11.609Z,22.23
2023-04-28T05:39:14.369Z,24.70
2023-04-28T05:44:18.074Z,25.50
2023-04-28T05:49:21.660Z,24.10
2023-04-28T05:54:26.291Z,22.73
2023-04-28T05:59:35.703Z,22.00
2023-04-28T06:04:41.932Z,19.50
2023-04-28T06:09:45.421Z,17.67
2023-04-28T06:14:53.286Z,15.23
2023-04-28T06:19:59.295Z,12.13
2023-04-28T06:25:35.504Z,10.07
2023-04-28T06:36:52.600Z,7.37
2023-04-28T06:41:58.478Z,9.57
2023-04-28T06:52:53.580Z,9.63
2023-04-28T06:57:57.019Z,7.67
2023-04-28T07:08:53.382Z,7.57
2023-04-28T07:13:54.225Z,6.20
2023-04-28T07:19:22.403Z,4.33
2023-04-28T07:24:25.042Z,4.47
2023-04-28T07:29:29.234Z,5.07
2023-04-28T07:34:35.959Z,4.03
2023-04-28T07:39:48.064Z,2.53
2023-04-28T07:44:50.576Z,3.20
2023-04-28T07:49:53.346Z,3.60
2023-04-28T07:55:07.121Z,4.50
2023-04-28T08:00:12.068Z,4.10
2023-04-28T08:05:16.099Z,3.43
2023-04-28T08:10:18.516Z,4.27
2023-04-28T08:15:21.433Z,4.67
2023-04-28T08:20:26.603Z,12.80
2023-04-28T08:25:29.166Z,4.33
2023-04-28T08:30:31.830Z,4.40
2023-04-28T08:35:34.679Z,4.40
2023-04-28T08:40:37.454Z,5.50
2023-04-28T08:45:49.313Z,3.87
2023-04-28T08:50:54.694Z,5.10
2023-04-28T08:55:58.679Z,6.20
2023-04-28T09:01:04.637Z,4.43
2023-04-28T09:06:07.499Z,4.63
2023-04-28T09:16:57.136Z,5.50
2023-04-28T09:22:24.920Z,4.80
2023-04-28T10:19:18.234Z,6.57
2023-04-28T10:44:44.004Z,8.13
2023-04-28T10:50:36.164Z,8.17
2023-04-28T11:02:43.931Z,8.27
2023-04-28T11:08:36.518Z,9.10
2023-04-28T11:13:42.268Z,8.07
2023-04-28T11:19:04.840Z,8.07
2023-04-28T11:24:11.242Z,8.00
2023-04-28T11:29:22.679Z,8.03
2023-04-28T11:34:39.696Z,8.63
2023-04-28T11:39:42.098Z,7.60
2023-04-28T11:44:54.907Z,7.90
2023-04-28T11:50:08.300Z,8.27
2023-04-28T11:55:22.056Z,8.30
2023-04-28T12:00:36.623Z,7.90
2023-04-28T12:23:08.939Z,7.80
2023-04-28T12:33:51.715Z,7.50
2023-04-28T12:38:54.088Z,8.30
2023-04-28T12:43:56.601Z,7.03
2023-04-28T12:48:58.967Z,7.23
2023-04-28T12:54:01.764Z,8.67
2023-04-28T12:59:04.433Z,7.20
2023-04-28T13:04:06.975Z,7.57
2023-04-28T13:09:10.231Z,9.07
2023-04-28T13:14:12.549Z,8.10
2023-04-28T13:19:14.920Z,8.63
2023-04-28T13:24:17.560Z,9.00
2023-04-28T13:29:19.823Z,8.17
2023-04-28T13:34:22.116Z,8.07
2023-04-28T13:39:24.599Z,8.53
2023-04-28T13:44:26.816Z,7.87
2023-04-28T13:49:29.297Z,7.43
2023-04-28T13:54:31.676Z,7.83
2023-04-28T13:59:34.401Z,9.47
2023-04-28T14:04:37.162Z,8.53
2023-04-28T14:09:40.522Z,7.77
2023-04-28T14:14:43.512Z,7.40
2023-04-28T14:19:46.795Z,7.73
2023-04-28T14:24:49.922Z,7.70
2023-04-28T14:29:52.511Z,7.10
2023-04-28T14:34:54.867Z,6.73
2023-04-28T14:39:57.326Z,6.57
2023-04-28T14:45:00.217Z,7.17
2023-04-28T14:50:02.616Z,6.90
2023-04-28T14:55:07.755Z,7.43
2023-04-28T15:00:10.616Z,6.63
2023-04-28T15:05:13.370Z,13.17
2023-04-28T15:10:15.758Z,6.50
2023-04-28T15:15:18.328Z,6.57
2023-04-28T15:20:31.372Z,7.40
2023-04-28T15:25:33.770Z,7.07
2023-04-28T15:30:36.608Z,7.67
2023-04-28T15:35:39.036Z,6.63
2023-04-28T15:40:42.582Z,7.03
2023-04-28T15:45:55.593Z,6.90
2023-04-28T15:50:58.587Z,6.87
2023-04-28T15:56:01.140Z,7.37
2023-04-28T16:01:05.291Z,6.27
2023-04-28T16:06:08.537Z,5.93
2023-04-28T16:11:17.733Z,6.00
2023-04-28T16:16:23.441Z,6.33
2023-04-28T16:21:59.271Z,7.63
2023-04-28T16:27:00.088Z,5.47
2023-04-28T16:32:03.360Z,9.93
2023-04-28T16:37:07.127Z,34.67
2023-04-28T16:42:09.482Z,5.33
2023-04-28T16:47:11.831Z,5.37
2023-04-28T16:52:14.432Z,6.00
2023-04-28T16:57:16.933Z,9.17
2023-04-28T17:02:19.368Z,27.83
2023-04-28T17:07:22.392Z,133.27
2023-04-28T17:12:26.798Z,84.30
2023-04-28T17:17:29.248Z,133.47
2023-04-28T17:22:31.594Z,44.10
2023-04-28T17:27:34.222Z,44.53
2023-04-28T17:32:37.438Z,22.70
2023-04-28T17:37:39.829Z,19.17
2023-04-28T17:49:47.707Z,18.30
2023-04-28T17:54:50.380Z,22.13
2023-04-28T17:59:52.983Z,18.53
2023-04-28T18:04:55.307Z,19.53
2023-04-28T18:09:57.819Z,21.03
2023-04-28T18:15:01.360Z,21.93
2023-04-28T18:20:06.899Z,18.17
2023-04-28T18:25:09.990Z,15.03
2023-04-28T18:30:13.009Z,14.70
2023-04-28T18:35:15.669Z,14.47
2023-04-28T18:40:18.103Z,28.00
2023-04-28T18:45:20.516Z,22.23
2023-04-28T18:50:23.705Z,21.40
2023-04-28T18:55:26.262Z,12.53
2023-04-28T19:00:28.548Z,13.23
2023-04-28T19:05:30.941Z,14.83
2023-04-28T19:10:33.505Z,13.87
2023-04-28T19:15:35.937Z,13.33
2023-04-28T19:20:38.255Z,12.90
2023-04-28T19:25:40.585Z,12.13
2023-04-28T19:30:43.581Z,12.30
2023-04-28T19:35:46.139Z,12.10
2023-04-28T19:40:49.516Z,21.47
2023-04-28T19:45:52.040Z,35.93
2023-04-28T19:50:54.459Z,54.03
2023-04-28T19:56:00.929Z,76.13
2023-04-28T20:01:06.442Z,23.57
2023-04-28T20:06:09.420Z,11.40
2023-04-28T20:11:11.970Z,11.73
2023-04-28T20:16:14.323Z,51.73
2023-04-28T20:21:17.207Z,31.20
2023-04-28T20:26:20.627Z,20.93
2023-04-28T20:31:24.122Z,51.00
2023-04-28T20:36:27.320Z,31.50
2023-04-28T20:41:29.611Z,24.03
2023-04-28T20:46:33.147Z,15.23
2023-04-28T20:51:37.351Z,14.47
2023-04-28T20:56:40.244Z,11.40
2023-04-28T21:01:42.619Z,11.80
2023-04-28T21:06:44.987Z,12.50
2023-04-28T21:11:48.076Z,12.67
2023-04-28T21:16:51.065Z,12.30
2023-04-28T21:21:53.445Z,12.47
2023-04-28T21:26:55.722Z,11.40
2023-04-28T21:31:58.611Z,12.17
2023-04-28T21:37:02.060Z,12.30
2023-04-28T21:42:04.791Z,11.80
2023-04-28T21:47:07.071Z,11.57
2023-04-28T21:52:09.477Z,12.93
2023-04-28T21:57:11.797Z,13.80
2023-04-28T22:02:14.127Z,14.33
2023-04-28T22:07:16.993Z,14.10
2023-04-28T22:12:19.675Z,12.77
2023-04-28T22:17:22.294Z,13.77
2023-04-28T22:22:24.663Z,12.40
2023-04-28T22:27:27.106Z,11.80
2023-04-28T22:32:29.989Z,12.27
2023-04-28T22:37:34.007Z,11.83
2023-04-28T22:42:37.576Z,12.50
2023-04-28T22:47:41.134Z,13.00
2023-04-28T22:52:43.616Z,12.37
2023-04-28T22:57:46.105Z,15.17
2023-04-28T23:02:48.586Z,12.47
2023-04-28T23:07:51.008Z,11.90
2023-04-28T23:12:53.361Z,13.03
2023-04-28T23:17:55.623Z,12.93
2023-04-28T23:22:58.713Z,11.70
2023-04-28T23:28:01.054Z,12.40
2023-04-28T23:33:04.046Z,12.40
2023-04-28T23:38:06.621Z,12.50
2023-04-28T23:43:08.931Z,12.63
2023-04-28T23:48:11.207Z,12.07
2023-04-28T23:53:13.600Z,12.30
2023-04-28T23:58:16.090Z,12.30
